Imperial County Airport
KIPL : rendu visible

Aérodrome :











RETROUVEZ-NOUS SUR...

 
LOGIN :

S'inscrire | Disclaimer

   EN    FR    IT 

 









Légende :    VFR   VFR Marginal   IFR   IFR Intensif   IFR Très Intensif
Visi : 
Plafond : 
>= 8 km
>= 3000ft
5 à 8 km
1000 à 3000 ft
1500m à 5 km
500 à 1000 ft
800 à 1500m
200 à 500 ft
< 800m
< 200 ft
Symboles :   Orages  Brouillard  Fortes neiges  Fortes précipitations  Vent > 20 kt







- Altitude de l'aérodrome : -54 ft


KIPL - Imperial County

DERNIER METAR :
  • 241953Z AUTO 32005KT 10SM CLR 36/M02 A2984 RMK AO2 SLP107 T03561022

METARs EXPIRÉS :
  • 241853Z AUTO VRB03KT 10SM CLR 34/01 A2987 RMK AO2 SLP114 T03440011
  • 241807Z AUTO 01005KT 9SM FEW002 33/03 A2988 RMK AO2 T03330028
  • 241753Z AUTO VRB05KT 10SM CLR 33/04 A2988 RMK AO2 SLP120 T03280044 10328 20194 50004

TAF KIPL
Valide du 24 à 18h jusqu'au 25 à 18h UTC


241732Z 2418/2518 22005KT P6SM SKC
FM241900 14005KT P6SM SKC
FM250000 24007KT P6SM SKC
FIR KZLA / Amérique du Nord



MET'MAP, la Météo Aéronautique d'un coup d'oeil ! - Copyright ORBIFLY Décembre 2007 - Disclaimer

ORBIFLY MET'MAP TEAM :

Programmation & Développement : Alexandra Zaïnal
Conception & Développement : Baudouin d'Aumeries
Co-Programmation & Développement : Marc-Olivier Méhu
Soutien technique & logistique : Manuel Goepfert

Contact : metmap@orbifly.com




SOURCES & CREDITS :

   NOAA       Earth
Advisory